sensor_id;sensor_type;location;lat;lon;timestamp;temperature;humidity
52943;DHT22;38809;53.300;6.614;2023-09-19T00:00:22;15.20;99.90
52943;DHT22;38809;53.300;6.614;2023-09-19T00:02:53;15.10;99.90
52943;DHT22;38809;53.300;6.614;2023-09-19T00:05:19;15.20;99.90
52943;DHT22;38809;53.300;6.614;2023-09-19T00:07:50;15.20;99.90
52943;DHT22;38809;53.300;6.614;2023-09-19T00:10:20;15.20;99.90
52943;DHT22;38809;53.300;6.614;2023-09-19T00:12:47;15.20;99.90
52943;DHT22;38809;53.300;6.614;2023-09-19T00:15:13;15.20;99.90
52943;DHT22;38809;53.300;6.614;2023-09-19T00:17:38;15.10;99.90
52943;DHT22;38809;53.300;6.614;2023-09-19T00:20:06;15.10;99.90
52943;DHT22;38809;53.300;6.614;2023-09-19T00:22:40;15.00;99.90
52943;DHT22;38809;53.300;6.614;2023-09-19T00:25:06;14.90;99.90
52943;DHT22;38809;53.300;6.614;2023-09-19T00:27:31;15.00;99.90
52943;DHT22;38809;53.300;6.614;2023-09-19T00:29:59;14.90;99.90
52943;DHT22;38809;53.300;6.614;2023-09-19T00:32:25;15.00;99.90
52943;DHT22;38809;53.300;6.614;2023-09-19T00:34:57;15.10;99.90
52943;DHT22;38809;53.300;6.614;2023-09-19T00:37:23;15.00;99.90
52943;DHT22;38809;53.300;6.614;2023-09-19T00:39:49;15.00;99.90
52943;DHT22;38809;53.300;6.614;2023-09-19T00:42:21;15.00;99.90
52943;DHT22;38809;53.300;6.614;2023-09-19T00:44:47;15.00;99.90
52943;DHT22;38809;53.300;6.614;2023-09-19T00:47:17;15.00;99.90
52943;DHT22;38809;53.300;6.614;2023-09-19T00:49:44;14.90;99.90
52943;DHT22;38809;53.300;6.614;2023-09-19T00:52:14;15.00;99.90
52943;DHT22;38809;53.300;6.614;2023-09-19T00:54:41;15.00;99.90
52943;DHT22;38809;53.300;6.614;2023-09-19T00:57:07;14.90;99.90
52943;DHT22;38809;53.300;6.614;2023-09-19T00:59:35;14.90;99.90
52943;DHT22;38809;53.300;6.614;2023-09-19T01:02:02;14.90;99.90
52943;DHT22;38809;53.300;6.614;2023-09-19T01:04:29;14.80;99.90
52943;DHT22;38809;53.300;6.614;2023-09-19T01:06:55;14.80;99.90
52943;DHT22;38809;53.300;6.614;2023-09-19T01:09:21;14.80;99.90
52943;DHT22;38809;53.300;6.614;2023-09-19T01:11:48;14.80;99.90
52943;DHT22;38809;53.300;6.614;2023-09-19T01:14:36;14.70;99.90
52943;DHT22;38809;53.300;6.614;2023-09-19T01:17:20;14.50;99.90
52943;DHT22;38809;53.300;6.614;2023-09-19T01:20:25;14.60;99.90
52943;DHT22;38809;53.300;6.614;2023-09-19T01:31:09;14.50;99.90
52943;DHT22;38809;53.300;6.614;2023-09-19T01:34:02;14.40;99.90
52943;DHT22;38809;53.300;6.614;2023-09-19T01:36:36;14.40;99.90
52943;DHT22;38809;53.300;6.614;2023-09-19T01:39:06;14.40;99.90
52943;DHT22;38809;53.300;6.614;2023-09-19T01:44:40;14.40;99.90
52943;DHT22;38809;53.300;6.614;2023-09-19T01:47:19;14.30;99.90
52943;DHT22;38809;53.300;6.614;2023-09-19T01:50:13;14.30;99.90
52943;DHT22;38809;53.300;6.614;2023-09-19T01:52:47;14.30;99.90
52943;DHT22;38809;53.300;6.614;2023-09-19T01:55:15;14.40;99.90
52943;DHT22;38809;53.300;6.614;2023-09-19T01:57:49;14.20;99.90
52943;DHT22;38809;53.300;6.614;2023-09-19T02:00:18;14.20;99.90
52943;DHT22;38809;53.300;6.614;2023-09-19T02:02:47;14.20;99.90
52943;DHT22;38809;53.300;6.614;2023-09-19T02:05:13;14.20;99.90
52943;DHT22;38809;53.300;6.614;2023-09-19T02:07:39;14.20;99.90
52943;DHT22;38809;53.300;6.614;2023-09-19T02:10:06;14.10;99.90
52943;DHT22;38809;53.300;6.614;2023-09-19T02:12:33;14.20;99.90
52943;DHT22;38809;53.300;6.614;2023-09-19T02:15:00;14.20;99.90
52943;DHT22;38809;53.300;6.614;2023-09-19T02:17:25;14.20;99.90
52943;DHT22;38809;53.300;6.614;2023-09-19T02:19:55;14.10;99.90
52943;DHT22;38809;53.300;6.614;2023-09-19T02:22:23;14.20;99.90
52943;DHT22;38809;53.300;6.614;2023-09-19T02:24:50;14.20;99.90
52943;DHT22;38809;53.300;6.614;2023-09-19T02:27:16;14.20;99.90
52943;DHT22;38809;53.300;6.614;2023-09-19T02:29:43;14.20;99.90
52943;DHT22;38809;53.300;6.614;2023-09-19T02:32:09;14.20;99.90
52943;DHT22;38809;53.300;6.614;2023-09-19T02:34:35;14.20;99.90
52943;DHT22;38809;53.300;6.614;2023-09-19T02:37:05;14.30;99.90
52943;DHT22;38809;53.300;6.614;2023-09-19T02:39:32;14.20;99.90
52943;DHT22;38809;53.300;6.614;2023-09-19T02:41:57;14.10;99.90
52943;DHT22;38809;53.300;6.614;2023-09-19T02:44:23;14.10;99.90
52943;DHT22;38809;53.300;6.614;2023-09-19T02:46:49;14.20;99.90
52943;DHT22;38809;53.300;6.614;2023-09-19T02:49:16;14.20;99.90
52943;DHT22;38809;53.300;6.614;2023-09-19T02:51:43;14.20;99.90
52943;DHT22;38809;53.300;6.614;2023-09-19T02:54:09;14.10;99.90
52943;DHT22;38809;53.300;6.614;2023-09-19T02:56:36;14.10;99.90
52943;DHT22;38809;53.300;6.614;2023-09-19T02:59:01;14.20;99.90
52943;DHT22;38809;53.300;6.614;2023-09-19T03:01:28;14.10;99.90
52943;DHT22;38809;53.300;6.614;2023-09-19T03:03:54;14.10;99.90
52943;DHT22;38809;53.300;6.614;2023-09-19T03:06:20;14.10;99.90
52943;DHT22;38809;53.300;6.614;2023-09-19T03:08:47;14.10;99.90
52943;DHT22;38809;53.300;6.614;2023-09-19T03:11:14;14.00;99.90
52943;DHT22;38809;53.300;6.614;2023-09-19T03:13:41;14.10;99.90
52943;DHT22;38809;53.300;6.614;2023-09-19T03:16:08;14.10;99.90
52943;DHT22;38809;53.300;6.614;2023-09-19T03:18:37;14.00;99.90
52943;DHT22;38809;53.300;6.614;2023-09-19T03:21:02;14.00;99.90
52943;DHT22;38809;53.300;6.614;2023-09-19T03:23:28;14.00;99.90
52943;DHT22;38809;53.300;6.614;2023-09-19T03:25:55;13.90;99.90
52943;DHT22;38809;53.300;6.614;2023-09-19T03:28:22;13.80;99.90
52943;DHT22;38809;53.300;6.614;2023-09-19T03:31:05;13.80;99.90
52943;DHT22;38809;53.300;6.614;2023-09-19T03:33:31;13.80;99.90
52943;DHT22;38809;53.300;6.614;2023-09-19T03:35:58;13.80;99.90
52943;DHT22;38809;53.300;6.614;2023-09-19T03:38:27;13.80;99.90
52943;DHT22;38809;53.300;6.614;2023-09-19T03:40:54;13.80;99.90
52943;DHT22;38809;53.300;6.614;2023-09-19T03:43:20;13.80;99.90
52943;DHT22;38809;53.300;6.614;2023-09-19T03:45:45;13.70;99.90
52943;DHT22;38809;53.300;6.614;2023-09-19T03:48:12;13.60;99.90
52943;DHT22;38809;53.300;6.614;2023-09-19T03:50:38;13.70;99.90
52943;DHT22;38809;53.300;6.614;2023-09-19T03:53:04;13.60;99.90
52943;DHT22;38809;53.300;6.614;2023-09-19T03:55:32;13.60;99.90
52943;DHT22;38809;53.300;6.614;2023-09-19T03:58:01;13.60;99.90
52943;DHT22;38809;53.300;6.614;2023-09-19T04:00:27;13.60;99.90
52943;DHT22;38809;53.300;6.614;2023-09-19T04:02:53;13.70;99.90
52943;DHT22;38809;53.300;6.614;2023-09-19T04:05:19;13.70;99.90
52943;DHT22;38809;53.300;6.614;2023-09-19T04:07:44;13.70;99.90
52943;DHT22;38809;53.300;6.614;2023-09-19T04:10:11;13.70;99.90
52943;DHT22;38809;53.300;6.614;2023-09-19T04:12:40;13.70;99.90
52943;DHT22;38809;53.300;6.614;2023-09-19T04:15:06;13.80;99.90
52943;DHT22;38809;53.300;6.614;2023-09-19T04:17:32;13.70;99.90
52943;DHT22;38809;53.300;6.614;2023-09-19T04:19:59;13.70;99.90
52943;DHT22;38809;53.300;6.614;2023-09-19T04:22:25;13.70;99.90
52943;DHT22;38809;53.300;6.614;2023-09-19T04:24:50;13.80;99.90
52943;DHT22;38809;53.300;6.614;2023-09-19T04:27:16;13.80;99.90
52943;DHT22;38809;53.300;6.614;2023-09-19T04:29:42;13.80;99.90
52943;DHT22;38809;53.300;6.614;2023-09-19T04:32:08;13.80;99.90
52943;DHT22;38809;53.300;6.614;2023-09-19T04:34:35;13.70;99.90
52943;DHT22;38809;53.300;6.614;2023-09-19T04:37:01;13.70;99.90
52943;DHT22;38809;53.300;6.614;2023-09-19T04:39:27;13.90;99.90
52943;DHT22;38809;53.300;6.614;2023-09-19T04:41:53;13.70;99.90
52943;DHT22;38809;53.300;6.614;2023-09-19T04:44:20;13.80;99.90
52943;DHT22;38809;53.300;6.614;2023-09-19T04:46:46;13.70;99.90
52943;DHT22;38809;53.300;6.614;2023-09-19T04:49:12;13.80;99.90
52943;DHT22;38809;53.300;6.614;2023-09-19T04:51:39;13.80;99.90
52943;DHT22;38809;53.300;6.614;2023-09-19T04:54:05;13.90;99.90
52943;DHT22;38809;53.300;6.614;2023-09-19T04:56:31;13.90;99.90
52943;DHT22;38809;53.300;6.614;2023-09-19T04:58:59;13.80;99.90
52943;DHT22;38809;53.300;6.614;2023-09-19T05:01:25;13.90;99.90
52943;DHT22;38809;53.300;6.614;2023-09-19T05:03:51;13.90;99.90
52943;DHT22;38809;53.300;6.614;2023-09-19T05:06:20;14.00;99.90
52943;DHT22;38809;53.300;6.614;2023-09-19T05:08:49;13.90;99.90
52943;DHT22;38809;53.300;6.614;2023-09-19T05:11:20;13.90;99.90
52943;DHT22;38809;53.300;6.614;2023-09-19T05:13:47;13.90;99.90
52943;DHT22;38809;53.300;6.614;2023-09-19T05:16:13;14.00;99.90
52943;DHT22;38809;53.300;6.614;2023-09-19T05:18:38;14.00;99.90
52943;DHT22;38809;53.300;6.614;2023-09-19T05:21:05;14.00;99.90
52943;DHT22;38809;53.300;6.614;2023-09-19T05:23:30;14.00;99.90
52943;DHT22;38809;53.300;6.614;2023-09-19T05:25:57;14.00;99.90
52943;DHT22;38809;53.300;6.614;2023-09-19T05:28:25;14.00;99.90
52943;DHT22;38809;53.300;6.614;2023-09-19T05:30:53;14.00;99.90
52943;DHT22;38809;53.300;6.614;2023-09-19T05:33:19;14.00;99.90
52943;DHT22;38809;53.300;6.614;2023-09-19T05:35:45;14.00;99.90
52943;DHT22;38809;53.300;6.614;2023-09-19T05:38:12;14.00;99.90
52943;DHT22;38809;53.300;6.614;2023-09-19T05:40:40;14.00;99.90
52943;DHT22;38809;53.300;6.614;2023-09-19T05:43:08;14.00;99.90
52943;DHT22;38809;53.300;6.614;2023-09-19T05:45:34;14.00;99.90
52943;DHT22;38809;53.300;6.614;2023-09-19T05:48:11;14.00;99.90
52943;DHT22;38809;53.300;6.614;2023-09-19T05:50:39;14.00;99.90
52943;DHT22;38809;53.300;6.614;2023-09-19T05:53:05;14.10;99.90
52943;DHT22;38809;53.300;6.614;2023-09-19T05:55:32;14.00;99.90
52943;DHT22;38809;53.300;6.614;2023-09-19T05:57:58;14.10;99.90
52943;DHT22;38809;53.300;6.614;2023-09-19T06:00:24;14.00;99.90
52943;DHT22;38809;53.300;6.614;2023-09-19T06:02:57;14.10;99.90
52943;DHT22;38809;53.300;6.614;2023-09-19T06:05:27;14.10;99.90
52943;DHT22;38809;53.300;6.614;2023-09-19T06:07:53;14.10;99.90
52943;DHT22;38809;53.300;6.614;2023-09-19T06:10:19;14.10;99.90
52943;DHT22;38809;53.300;6.614;2023-09-19T06:12:49;14.10;99.90
52943;DHT22;38809;53.300;6.614;2023-09-19T06:15:15;14.10;99.90
52943;DHT22;38809;53.300;6.614;2023-09-19T06:17:45;14.10;99.90
52943;DHT22;38809;53.300;6.614;2023-09-19T06:20:11;14.10;99.90
52943;DHT22;38809;53.300;6.614;2023-09-19T06:22:44;14.20;99.90
52943;DHT22;38809;53.300;6.614;2023-09-19T06:25:11;14.30;99.90
52943;DHT22;38809;53.300;6.614;2023-09-19T06:27:41;14.30;99.90
52943;DHT22;38809;53.300;6.614;2023-09-19T06:30:08;14.30;99.90
52943;DHT22;38809;53.300;6.614;2023-09-19T06:32:40;14.30;99.90
52943;DHT22;38809;53.300;6.614;2023-09-19T06:35:13;14.30;99.90
52943;DHT22;38809;53.300;6.614;2023-09-19T06:37:39;14.30;99.90
52943;DHT22;38809;53.300;6.614;2023-09-19T06:40:11;14.30;99.90
52943;DHT22;38809;53.300;6.614;2023-09-19T06:43:06;14.40;99.90
52943;DHT22;38809;53.300;6.614;2023-09-19T06:45:32;14.40;99.90
52943;DHT22;38809;53.300;6.614;2023-09-19T06:47:58;14.40;99.90
52943;DHT22;38809;53.300;6.614;2023-09-19T06:50:25;14.40;99.90
52943;DHT22;38809;53.300;6.614;2023-09-19T06:52:54;14.40;99.90
52943;DHT22;38809;53.300;6.614;2023-09-19T06:55:21;14.40;99.90
52943;DHT22;38809;53.300;6.614;2023-09-19T06:57:51;14.40;99.90
52943;DHT22;38809;53.300;6.614;2023-09-19T07:00:16;14.40;99.90
52943;DHT22;38809;53.300;6.614;2023-09-19T07:03:01;14.50;99.90
52943;DHT22;38809;53.300;6.614;2023-09-19T07:05:30;14.50;99.90
52943;DHT22;38809;53.300;6.614;2023-09-19T07:07:59;14.50;99.90
52943;DHT22;38809;53.300;6.614;2023-09-19T07:10:26;14.60;99.90
52943;DHT22;38809;53.300;6.614;2023-09-19T07:13:02;14.60;99.90
52943;DHT22;38809;53.300;6.614;2023-09-19T07:15:30;14.60;99.90
52943;DHT22;38809;53.300;6.614;2023-09-19T07:17:58;14.70;99.90
52943;DHT22;38809;53.300;6.614;2023-09-19T07:20:26;14.70;99.90
52943;DHT22;38809;53.300;6.614;2023-09-19T07:22:54;14.80;99.90
52943;DHT22;38809;53.300;6.614;2023-09-19T07:25:25;14.70;99.90
52943;DHT22;38809;53.300;6.614;2023-09-19T07:27:51;14.80;99.90
52943;DHT22;38809;53.300;6.614;2023-09-19T07:30:17;14.80;99.90
52943;DHT22;38809;53.300;6.614;2023-09-19T07:32:43;14.80;99.90
52943;DHT22;38809;53.300;6.614;2023-09-19T07:35:08;14.80;99.90
52943;DHT22;38809;53.300;6.614;2023-09-19T07:37:35;14.80;99.90
52943;DHT22;38809;53.300;6.614;2023-09-19T07:40:02;14.90;99.90
52943;DHT22;38809;53.300;6.614;2023-09-19T07:42:36;14.90;99.90
52943;DHT22;38809;53.300;6.614;2023-09-19T07:45:04;15.00;99.90
52943;DHT22;38809;53.300;6.614;2023-09-19T07:47:30;15.00;99.90
52943;DHT22;38809;53.300;6.614;2023-09-19T07:49:58;15.00;99.90
52943;DHT22;38809;53.300;6.614;2023-09-19T07:52:24;15.00;99.90
52943;DHT22;38809;53.300;6.614;2023-09-19T07:54:50;15.10;99.90
52943;DHT22;38809;53.300;6.614;2023-09-19T07:57:16;15.10;99.90
52943;DHT22;38809;53.300;6.614;2023-09-19T07:59:41;15.20;99.90
52943;DHT22;38809;53.300;6.614;2023-09-19T08:02:10;15.20;99.90
52943;DHT22;38809;53.300;6.614;2023-09-19T08:04:44;15.20;99.90
52943;DHT22;38809;53.300;6.614;2023-09-19T08:07:12;15.20;99.90
52943;DHT22;38809;53.300;6.614;2023-09-19T08:09:41;15.20;99.90
52943;DHT22;38809;53.300;6.614;2023-09-19T08:12:12;15.20;99.90
52943;DHT22;38809;53.300;6.614;2023-09-19T08:14:37;15.20;99.90
52943;DHT22;38809;53.300;6.614;2023-09-19T08:17:04;15.30;99.90
52943;DHT22;38809;53.300;6.614;2023-09-19T08:19:31;15.30;99.90
52943;DHT22;38809;53.300;6.614;2023-09-19T08:21:58;15.40;99.90
52943;DHT22;38809;53.300;6.614;2023-09-19T08:24:27;15.50;99.90
52943;DHT22;38809;53.300;6.614;2023-09-19T08:26:55;15.50;99.90
52943;DHT22;38809;53.300;6.614;2023-09-19T08:29:24;15.60;99.90
52943;DHT22;38809;53.300;6.614;2023-09-19T08:31:59;15.70;99.90
52943;DHT22;38809;53.300;6.614;2023-09-19T08:34:25;15.70;99.90
52943;DHT22;38809;53.300;6.614;2023-09-19T08:36:51;15.90;99.90
52943;DHT22;38809;53.300;6.614;2023-09-19T08:39:26;16.00;99.90
52943;DHT22;38809;53.300;6.614;2023-09-19T08:42:01;16.10;99.90
52943;DHT22;38809;53.300;6.614;2023-09-19T08:44:28;16.10;99.90
52943;DHT22;38809;53.300;6.614;2023-09-19T08:47:15;16.20;99.90
52943;DHT22;38809;53.300;6.614;2023-09-19T08:50:08;16.10;99.90
52943;DHT22;38809;53.300;6.614;2023-09-19T08:52:43;16.10;99.90
52943;DHT22;38809;53.300;6.614;2023-09-19T08:55:14;16.10;99.90
52943;DHT22;38809;53.300;6.614;2023-09-19T08:57:49;16.20;99.90
52943;DHT22;38809;53.300;6.614;2023-09-19T09:00:16;16.20;99.90
52943;DHT22;38809;53.300;6.614;2023-09-19T09:02:47;16.30;99.90
52943;DHT22;38809;53.300;6.614;2023-09-19T09:05:15;16.30;99.90
52943;DHT22;38809;53.300;6.614;2023-09-19T09:07:42;16.40;99.90
52943;DHT22;38809;53.300;6.614;2023-09-19T09:10:09;16.40;99.90
52943;DHT22;38809;53.300;6.614;2023-09-19T09:12:35;16.40;99.90
52943;DHT22;38809;53.300;6.614;2023-09-19T09:15:07;16.40;99.90
52943;DHT22;38809;53.300;6.614;2023-09-19T09:17:34;16.50;99.90
52943;DHT22;38809;53.300;6.614;2023-09-19T09:20:00;16.50;99.90
52943;DHT22;38809;53.300;6.614;2023-09-19T09:22:25;16.50;99.90
52943;DHT22;38809;53.300;6.614;2023-09-19T09:24:58;16.50;99.90
52943;DHT22;38809;53.300;6.614;2023-09-19T09:27:29;16.60;99.90
52943;DHT22;38809;53.300;6.614;2023-09-19T09:29:55;16.60;99.90
52943;DHT22;38809;53.300;6.614;2023-09-19T09:34:49;16.80;99.90
52943;DHT22;38809;53.300;6.614;2023-09-19T09:37:16;16.90;99.90
52943;DHT22;38809;53.300;6.614;2023-09-19T09:39:59;16.80;99.90
52943;DHT22;38809;53.300;6.614;2023-09-19T09:42:51;16.90;99.90
52943;DHT22;38809;53.300;6.614;2023-09-19T09:45:19;16.90;99.90
52943;DHT22;38809;53.300;6.614;2023-09-19T09:48:04;16.90;99.90
52943;DHT22;38809;53.300;6.614;2023-09-19T09:50:46;17.00;99.90
52943;DHT22;38809;53.300;6.614;2023-09-19T09:53:25;17.00;99.90
52943;DHT22;38809;53.300;6.614;2023-09-19T09:56:05;16.90;99.90
52943;DHT22;38809;53.300;6.614;2023-09-19T09:58:49;17.00;99.90
52943;DHT22;38809;53.300;6.614;2023-09-19T10:01:15;17.20;99.90
52943;DHT22;38809;53.300;6.614;2023-09-19T10:03:42;17.20;99.90
52943;DHT22;38809;53.300;6.614;2023-09-19T10:06:17;17.30;99.90
52943;DHT22;38809;53.300;6.614;2023-09-19T10:09:05;17.20;99.90
52943;DHT22;38809;53.300;6.614;2023-09-19T10:11:47;17.20;99.90
52943;DHT22;38809;53.300;6.614;2023-09-19T10:14:25;17.10;99.90
52943;DHT22;38809;53.300;6.614;2023-09-19T10:16:58;17.20;99.90
52943;DHT22;38809;53.300;6.614;2023-09-19T10:19:44;17.20;99.90
52943;DHT22;38809;53.300;6.614;2023-09-19T10:22:14;17.40;99.90
52943;DHT22;38809;53.300;6.614;2023-09-19T10:24:43;17.60;99.90
52943;DHT22;38809;53.300;6.614;2023-09-19T10:27:12;17.80;99.90
52943;DHT22;38809;53.300;6.614;2023-09-19T10:29:39;17.90;99.90
52943;DHT22;38809;53.300;6.614;2023-09-19T10:32:06;17.90;99.90
52943;DHT22;38809;53.300;6.614;2023-09-19T10:34:38;18.10;99.90
52943;DHT22;38809;53.300;6.614;2023-09-19T10:37:07;18.10;99.90
52943;DHT22;38809;53.300;6.614;2023-09-19T10:39:36;19.30;99.90
52943;DHT22;38809;53.300;6.614;2023-09-19T10:42:06;18.00;99.90
52943;DHT22;38809;53.300;6.614;2023-09-19T10:44:37;18.00;99.90
52943;DHT22;38809;53.300;6.614;2023-09-19T10:47:09;18.20;99.90
52943;DHT22;38809;53.300;6.614;2023-09-19T10:49:35;18.30;99.90
52943;DHT22;38809;53.300;6.614;2023-09-19T10:52:08;18.30;99.90
52943;DHT22;38809;53.300;6.614;2023-09-19T10:54:38;18.40;99.90
52943;DHT22;38809;53.300;6.614;2023-09-19T10:57:10;18.30;99.90
52943;DHT22;38809;53.300;6.614;2023-09-19T10:59:36;18.20;99.90
52943;DHT22;38809;53.300;6.614;2023-09-19T11:02:17;18.10;99.90
52943;DHT22;38809;53.300;6.614;2023-09-19T11:04:43;18.00;99.90
52943;DHT22;38809;53.300;6.614;2023-09-19T11:07:15;17.80;99.90
52943;DHT22;38809;53.300;6.614;2023-09-19T11:09:53;18.00;99.90
52943;DHT22;38809;53.300;6.614;2023-09-19T11:14:58;18.00;99.90
52943;DHT22;38809;53.300;6.614;2023-09-19T11:30:51;17.90;99.90
52943;DHT22;38809;53.300;6.614;2023-09-19T11:33:26;17.90;99.90
52943;DHT22;38809;53.300;6.614;2023-09-19T11:36:02;17.90;99.90
52943;DHT22;38809;53.300;6.614;2023-09-19T11:49:31;17.90;99.90
52943;DHT22;38809;53.300;6.614;2023-09-19T11:52:02;18.00;99.90
52943;DHT22;38809;53.300;6.614;2023-09-19T11:54:31;18.00;99.90
52943;DHT22;38809;53.300;6.614;2023-09-19T11:56:58;18.00;99.90
52943;DHT22;38809;53.300;6.614;2023-09-19T11:59:31;18.00;99.90
52943;DHT22;38809;53.300;6.614;2023-09-19T12:02:04;18.10;99.90
52943;DHT22;38809;53.300;6.614;2023-09-19T12:04:42;18.10;99.90
52943;DHT22;38809;53.300;6.614;2023-09-19T12:07:16;18.00;99.90
52943;DHT22;38809;53.300;6.614;2023-09-19T12:09:43;18.00;99.90
52943;DHT22;38809;53.300;6.614;2023-09-19T12:12:10;18.00;99.90
52943;DHT22;38809;53.300;6.614;2023-09-19T12:14:41;17.80;99.90
52943;DHT22;38809;53.300;6.614;2023-09-19T12:17:08;17.80;99.90
52943;DHT22;38809;53.300;6.614;2023-09-19T12:19:34;17.70;99.90
52943;DHT22;38809;53.300;6.614;2023-09-19T12:22:01;17.80;99.90
52943;DHT22;38809;53.300;6.614;2023-09-19T12:24:32;17.80;99.90
52943;DHT22;38809;53.300;6.614;2023-09-19T12:27:05;17.80;99.90
52943;DHT22;38809;53.300;6.614;2023-09-19T12:29:47;17.80;99.90
52943;DHT22;38809;53.300;6.614;2023-09-19T12:32:16;17.70;99.90
52943;DHT22;38809;53.300;6.614;2023-09-19T12:34:51;17.70;99.90
52943;DHT22;38809;53.300;6.614;2023-09-19T12:37:18;17.60;99.90
52943;DHT22;38809;53.300;6.614;2023-09-19T12:39:49;17.70;99.90
52943;DHT22;38809;53.300;6.614;2023-09-19T12:42:18;17.50;99.90
52943;DHT22;38809;53.300;6.614;2023-09-19T12:44:46;17.30;99.90
52943;DHT22;38809;53.300;6.614;2023-09-19T12:47:17;17.20;99.90
52943;DHT22;38809;53.300;6.614;2023-09-19T12:52:37;17.30;99.90
52943;DHT22;38809;53.300;6.614;2023-09-19T12:55:04;17.40;99.90
52943;DHT22;38809;53.300;6.614;2023-09-19T12:57:35;17.40;99.90
52943;DHT22;38809;53.300;6.614;2023-09-19T13:00:02;17.50;99.90
52943;DHT22;38809;53.300;6.614;2023-09-19T13:02:28;17.60;99.90
52943;DHT22;38809;53.300;6.614;2023-09-19T13:04:54;17.60;99.90
52943;DHT22;38809;53.300;6.614;2023-09-19T13:07:41;17.70;99.90
52943;DHT22;38809;53.300;6.614;2023-09-19T13:10:09;17.60;99.90
52943;DHT22;38809;53.300;6.614;2023-09-19T13:12:42;17.60;99.90
52943;DHT22;38809;53.300;6.614;2023-09-19T13:15:15;17.60;99.90
52943;DHT22;38809;53.300;6.614;2023-09-19T13:17:49;17.60;99.90
52943;DHT22;38809;53.300;6.614;2023-09-19T13:20:25;17.60;99.90
52943;DHT22;38809;53.300;6.614;2023-09-19T13:22:54;17.60;99.90
52943;DHT22;38809;53.300;6.614;2023-09-19T13:25:24;17.60;99.90
52943;DHT22;38809;53.300;6.614;2023-09-19T13:27:52;17.60;99.90
52943;DHT22;38809;53.300;6.614;2023-09-19T13:30:20;17.60;99.90
52943;DHT22;38809;53.300;6.614;2023-09-19T13:32:46;17.50;99.90
52943;DHT22;38809;53.300;6.614;2023-09-19T13:35:15;17.30;99.90
52943;DHT22;38809;53.300;6.614;2023-09-19T13:37:42;17.20;99.90
52943;DHT22;38809;53.300;6.614;2023-09-19T13:40:09;17.00;99.90
52943;DHT22;38809;53.300;6.614;2023-09-19T13:42:35;17.00;99.90
52943;DHT22;38809;53.300;6.614;2023-09-19T13:45:02;17.00;99.90
52943;DHT22;38809;53.300;6.614;2023-09-19T13:47:33;17.10;99.90
52943;DHT22;38809;53.300;6.614;2023-09-19T13:50:02;17.10;99.90
52943;DHT22;38809;53.300;6.614;2023-09-19T13:52:30;17.10;99.90
52943;DHT22;38809;53.300;6.614;2023-09-19T13:54:56;17.10;99.90
52943;DHT22;38809;53.300;6.614;2023-09-19T13:57:28;17.20;99.90
52943;DHT22;38809;53.300;6.614;2023-09-19T13:59:55;17.40;99.90
52943;DHT22;38809;53.300;6.614;2023-09-19T14:02:24;17.40;99.90
52943;DHT22;38809;53.300;6.614;2023-09-19T14:04:53;17.50;99.90
52943;DHT22;38809;53.300;6.614;2023-09-19T14:07:19;17.50;99.90
52943;DHT22;38809;53.300;6.614;2023-09-19T14:09:45;17.60;99.90
52943;DHT22;38809;53.300;6.614;2023-09-19T14:12:11;17.60;99.90
52943;DHT22;38809;53.300;6.614;2023-09-19T14:14:37;17.60;99.90
52943;DHT22;38809;53.300;6.614;2023-09-19T14:17:05;17.60;99.90
52943;DHT22;38809;53.300;6.614;2023-09-19T14:19:33;17.60;99.90
52943;DHT22;38809;53.300;6.614;2023-09-19T14:21:58;17.70;99.90
52943;DHT22;38809;53.300;6.614;2023-09-19T14:24:25;17.80;99.90
52943;DHT22;38809;53.300;6.614;2023-09-19T14:26:51;17.80;99.90
52943;DHT22;38809;53.300;6.614;2023-09-19T14:29:17;17.80;99.90
52943;DHT22;38809;53.300;6.614;2023-09-19T14:31:43;17.80;99.90
52943;DHT22;38809;53.300;6.614;2023-09-19T14:34:09;17.90;99.90
52943;DHT22;38809;53.300;6.614;2023-09-19T14:36:36;17.90;99.90
52943;DHT22;38809;53.300;6.614;2023-09-19T14:39:04;17.90;99.90
52943;DHT22;38809;53.300;6.614;2023-09-19T14:41:30;18.00;99.90
52943;DHT22;38809;53.300;6.614;2023-09-19T14:43:57;17.90;99.90
52943;DHT22;38809;53.300;6.614;2023-09-19T14:46:23;17.80;99.90
52943;DHT22;38809;53.300;6.614;2023-09-19T14:48:51;17.80;99.90
52943;DHT22;38809;53.300;6.614;2023-09-19T14:51:17;17.80;99.90
52943;DHT22;38809;53.300;6.614;2023-09-19T14:53:45;17.80;99.90
52943;DHT22;38809;53.300;6.614;2023-09-19T14:56:11;17.80;99.90
52943;DHT22;38809;53.300;6.614;2023-09-19T14:58:37;17.70;99.90
52943;DHT22;38809;53.300;6.614;2023-09-19T15:03:34;17.60;99.90
52943;DHT22;38809;53.300;6.614;2023-09-19T15:06:04;17.60;99.90
52943;DHT22;38809;53.300;6.614;2023-09-19T15:08:37;17.50;99.90
52943;DHT22;38809;53.300;6.614;2023-09-19T15:11:04;17.50;99.90
52943;DHT22;38809;53.300;6.614;2023-09-19T15:13:34;17.40;99.90
52943;DHT22;38809;53.300;6.614;2023-09-19T15:16:04;17.40;99.90
52943;DHT22;38809;53.300;6.614;2023-09-19T15:18:30;17.40;99.90
52943;DHT22;38809;53.300;6.614;2023-09-19T15:21:00;17.30;99.90
52943;DHT22;38809;53.300;6.614;2023-09-19T15:23:26;17.20;99.90
52943;DHT22;38809;53.300;6.614;2023-09-19T15:25:52;17.10;99.90
52943;DHT22;38809;53.300;6.614;2023-09-19T15:28:18;17.10;99.90
52943;DHT22;38809;53.300;6.614;2023-09-19T15:30:49;17.10;99.90
52943;DHT22;38809;53.300;6.614;2023-09-19T15:33:14;17.10;99.90
52943;DHT22;38809;53.300;6.614;2023-09-19T15:35:40;17.00;99.90
52943;DHT22;38809;53.300;6.614;2023-09-19T15:38:07;17.00;99.90
52943;DHT22;38809;53.300;6.614;2023-09-19T15:40:33;17.00;99.90
52943;DHT22;38809;53.300;6.614;2023-09-19T15:42:59;16.90;99.90
52943;DHT22;38809;53.300;6.614;2023-09-19T15:45:25;16.80;99.90
52943;DHT22;38809;53.300;6.614;2023-09-19T15:47:51;16.70;99.90
52943;DHT22;38809;53.300;6.614;2023-09-19T15:50:18;16.70;99.90
52943;DHT22;38809;53.300;6.614;2023-09-19T15:52:44;16.70;99.90
52943;DHT22;38809;53.300;6.614;2023-09-19T15:55:10;16.50;99.90
52943;DHT22;38809;53.300;6.614;2023-09-19T15:57:37;16.50;99.90
52943;DHT22;38809;53.300;6.614;2023-09-19T16:00:04;16.60;99.90
52943;DHT22;38809;53.300;6.614;2023-09-19T16:02:36;16.60;99.90
52943;DHT22;38809;53.300;6.614;2023-09-19T16:05:02;16.70;99.90
52943;DHT22;38809;53.300;6.614;2023-09-19T16:07:31;16.70;99.90
52943;DHT22;38809;53.300;6.614;2023-09-19T16:09:57;16.70;99.90
52943;DHT22;38809;53.300;6.614;2023-09-19T16:12:24;16.70;99.90
52943;DHT22;38809;53.300;6.614;2023-09-19T16:14:50;16.70;99.90
52943;DHT22;38809;53.300;6.614;2023-09-19T16:17:16;16.70;99.90
52943;DHT22;38809;53.300;6.614;2023-09-19T16:19:41;16.70;99.90
52943;DHT22;38809;53.300;6.614;2023-09-19T16:22:09;16.80;99.90
52943;DHT22;38809;53.300;6.614;2023-09-19T16:24:35;16.80;99.90
52943;DHT22;38809;53.300;6.614;2023-09-19T16:27:01;16.80;99.90